createdAt,value
2023-02-12T00:01:55.788Z,162.10
2023-02-12T00:04:25.023Z,158.75
2023-02-12T00:06:53.876Z,150.93
2023-02-12T00:09:22.957Z,131.43
2023-02-12T00:11:52.427Z,148.80
2023-02-12T00:14:21.749Z,117.53
2023-02-12T00:16:51.076Z,119.30
2023-02-12T00:19:20.417Z,123.65
2023-02-12T00:21:49.476Z,108.78
2023-02-12T00:24:18.559Z,109.03
2023-02-12T00:26:49.302Z,126.55
2023-02-12T00:29:18.877Z,126.32
2023-02-12T00:31:48.049Z,116.50
2023-02-12T00:34:17.858Z,114.07
2023-02-12T00:36:47.123Z,118.00
2023-02-12T00:39:16.145Z,129.18
2023-02-12T00:41:45.245Z,144.38
2023-02-12T00:44:40.652Z,119.25
2023-02-12T00:47:12.687Z,124.15
2023-02-12T00:49:42.015Z,105.65
2023-02-12T00:52:10.914Z,130.85
2023-02-12T00:54:40.134Z,117.90
2023-02-12T00:57:09.295Z,107.28
2023-02-12T01:00:22.274Z,111.85
2023-02-12T01:02:52.771Z,113.32
2023-02-12T01:05:22.529Z,122.20
2023-02-12T01:07:56.028Z,115.95
2023-02-12T01:10:27.737Z,124.85
2023-02-12T01:12:58.808Z,126.05
2023-02-12T01:15:29.031Z,108.80
2023-02-12T01:18:03.720Z,103.80
2023-02-12T01:20:33.363Z,143.35
2023-02-12T01:23:02.909Z,119.97
2023-02-12T01:25:32.546Z,124.13
2023-02-12T01:28:01.744Z,150.45
2023-02-12T01:30:31.374Z,151.45
2023-02-12T01:33:01.695Z,154.93
2023-02-12T01:35:31.140Z,171.85
2023-02-12T01:38:02.844Z,137.70
2023-02-12T01:40:32.540Z,125.57
2023-02-12T01:43:05.766Z,131.20
2023-02-12T01:45:38.381Z,110.22
2023-02-12T01:48:08.705Z,125.90
2023-02-12T01:50:38.335Z,114.45
2023-02-12T01:53:07.881Z,102.78
2023-02-12T01:55:37.084Z,108.28
2023-02-12T01:58:08.712Z,104.20
2023-02-12T02:00:38.292Z,109.03
2023-02-12T02:03:07.631Z,106.45
2023-02-12T02:05:52.040Z,113.63
2023-02-12T02:08:21.613Z,86.43
2023-02-12T02:14:56.227Z,102.13
2023-02-12T02:17:44.058Z,95.85
2023-02-12T02:20:37.284Z,112.80
2023-02-12T02:23:24.722Z,103.75
2023-02-12T02:26:33.667Z,95.50
2023-02-12T02:29:31.923Z,110.47
2023-02-12T02:36:27.944Z,112.85
2023-02-12T02:39:15.294Z,129.43
2023-02-12T02:41:44.895Z,123.97
2023-02-12T02:44:25.419Z,155.02
2023-02-12T02:46:55.858Z,103.80
2023-02-12T02:49:30.803Z,137.52
2023-02-12T02:52:09.245Z,138.68
2023-02-12T02:54:53.099Z,153.07
2023-02-12T02:57:28.792Z,162.50
2023-02-12T03:00:23.710Z,154.77
2023-02-12T03:03:00.833Z,148.77
2023-02-12T03:05:46.928Z,133.88
2023-02-12T03:08:25.042Z,100.25
2023-02-12T03:10:59.193Z,115.00
2023-02-12T03:13:44.556Z,119.43
2023-02-12T03:16:21.136Z,92.07
2023-02-12T03:19:02.892Z,86.13
2023-02-12T03:21:42.691Z,85.25
2023-02-12T03:24:14.818Z,93.60
2023-02-12T03:26:55.964Z,116.07
2023-02-12T03:29:25.568Z,86.57
2023-02-12T03:32:41.354Z,89.90
2023-02-12T03:35:22.416Z,77.65
2023-02-12T03:38:18.377Z,77.88
2023-02-12T03:41:15.115Z,75.80
2023-02-12T03:44:40.026Z,84.70
2023-02-12T03:47:45.532Z,99.40
2023-02-12T03:50:25.265Z,76.30
2023-02-12T03:52:55.014Z,69.63
2023-02-12T03:55:24.454Z,89.25
2023-02-12T03:58:01.847Z,94.38
2023-02-12T04:04:32.588Z,92.97
2023-02-12T04:07:03.497Z,67.65
2023-02-12T04:09:34.812Z,71.28
2023-02-12T04:12:13.572Z,76.22
2023-02-12T04:14:51.632Z,73.75
2023-02-12T04:17:31.695Z,73.97
2023-02-12T04:20:24.151Z,70.80
2023-02-12T04:23:06.022Z,85.85
2023-02-12T04:25:59.268Z,54.85
2023-02-12T04:28:45.546Z,65.45
2023-02-12T04:31:41.859Z,61.45
2023-02-12T04:34:45.538Z,52.55
2023-02-12T04:37:27.658Z,48.75
2023-02-12T04:39:59.897Z,51.97
2023-02-12T04:42:29.699Z,51.78
2023-02-12T04:44:59.459Z,39.95
2023-02-12T04:47:29.544Z,42.50
2023-02-12T04:49:59.119Z,36.67
2023-02-12T04:52:28.899Z,30.38
2023-02-12T04:54:58.440Z,37.10
2023-02-12T04:57:28.281Z,42.47
2023-02-12T04:59:57.934Z,43.00
2023-02-12T05:02:33.711Z,37.25
2023-02-12T05:06:07.860Z,34.80
2023-02-12T05:08:37.524Z,48.65
2023-02-12T05:11:08.926Z,54.20
2023-02-12T05:13:38.805Z,38.40
2023-02-12T05:16:10.152Z,45.17
2023-02-12T05:18:39.589Z,41.38
2023-02-12T05:21:08.568Z,46.28
2023-02-12T05:23:39.358Z,50.85
2023-02-12T05:26:20.397Z,33.40
2023-02-12T05:28:49.912Z,67.03
2023-02-12T05:31:23.225Z,36.05
2023-02-12T05:33:52.766Z,32.65
2023-02-12T05:36:24.757Z,39.90
2023-02-12T05:38:54.950Z,26.67
2023-02-12T05:41:25.596Z,33.78
2023-02-12T05:43:55.832Z,33.17
2023-02-12T05:46:26.445Z,41.17
2023-02-12T05:48:56.031Z,33.90
2023-02-12T05:51:27.210Z,36.17
2023-02-12T05:54:05.545Z,46.40
2023-02-12T05:56:37.559Z,47.53
2023-02-12T05:59:15.516Z,33.08
2023-02-12T06:01:47.263Z,32.78
2023-02-12T06:04:25.971Z,25.75
2023-02-12T06:06:56.784Z,33.20
2023-02-12T06:09:26.305Z,38.63
2023-02-12T06:11:55.401Z,20.55
2023-02-12T06:14:24.805Z,46.97
2023-02-12T06:16:54.264Z,25.92
2023-02-12T06:19:25.398Z,24.55
2023-02-12T06:21:54.952Z,25.45
2023-02-12T06:24:26.965Z,36.70
2023-02-12T06:26:56.184Z,65.07
2023-02-12T06:29:26.057Z,30.30
2023-02-12T06:31:55.341Z,30.33
2023-02-12T06:34:24.718Z,23.73
2023-02-12T06:36:53.692Z,34.10
2023-02-12T06:39:23.023Z,34.35
2023-02-12T06:41:52.212Z,41.28
2023-02-12T06:44:21.792Z,80.78
2023-02-12T06:46:51.095Z,42.97
2023-02-12T06:49:20.234Z,21.60
2023-02-12T06:51:49.271Z,37.63
2023-02-12T06:54:19.702Z,23.52
2023-02-12T06:56:48.878Z,41.25
2023-02-12T06:59:18.711Z,26.40
2023-02-12T07:01:48.051Z,34.13
2023-02-12T07:04:17.332Z,31.88
2023-02-12T07:06:46.404Z,38.63
2023-02-12T07:09:15.470Z,18.55
2023-02-12T07:11:44.495Z,25.95
2023-02-12T07:14:18.494Z,42.15
2023-02-12T07:16:47.738Z,21.75
2023-02-12T07:19:17.512Z,39.50
2023-02-12T07:21:46.854Z,18.10
2023-02-12T07:24:19.196Z,51.95
2023-02-12T07:29:17.970Z,23.10
2023-02-12T07:31:47.257Z,35.92
2023-02-12T07:34:16.587Z,32.40
2023-02-12T07:36:45.982Z,24.27
2023-02-12T07:39:14.996Z,23.95
2023-02-12T07:41:44.384Z,23.65
2023-02-12T07:44:14.433Z,33.17
2023-02-12T07:46:48.953Z,21.60
2023-02-12T07:49:23.188Z,25.10
2023-02-12T07:51:52.652Z,15.45
2023-02-12T07:54:21.752Z,28.60
2023-02-12T07:56:52.856Z,15.50
2023-02-12T07:59:22.335Z,44.60
2023-02-12T08:01:53.601Z,25.13
2023-02-12T08:04:26.050Z,15.82
2023-02-12T08:06:57.116Z,36.80
2023-02-12T08:09:29.200Z,29.42
2023-02-12T08:11:59.055Z,25.83
2023-02-12T08:14:28.897Z,23.05
2023-02-12T08:16:57.924Z,33.17
2023-02-12T08:19:27.082Z,28.75
2023-02-12T08:21:57.915Z,23.20
2023-02-12T08:24:27.375Z,16.60
2023-02-12T08:26:56.933Z,17.38
2023-02-12T08:29:29.531Z,34.13
2023-02-12T08:32:01.336Z,26.25
2023-02-12T08:34:36.675Z,19.73
2023-02-12T08:37:07.794Z,12.68
2023-02-12T08:39:36.876Z,41.55
2023-02-12T08:42:06.835Z,36.13
2023-02-12T08:44:36.379Z,20.40
2023-02-12T08:47:07.251Z,13.13
2023-02-12T08:49:37.991Z,19.42
2023-02-12T08:52:07.554Z,13.43
2023-02-12T08:54:37.243Z,13.25
2023-02-12T08:57:06.233Z,53.88
2023-02-12T08:59:35.232Z,36.40
2023-02-12T09:02:09.604Z,16.95
2023-02-12T09:04:38.965Z,31.00
2023-02-12T09:07:10.729Z,68.15
2023-02-12T09:09:40.601Z,20.80
2023-02-12T09:12:09.659Z,17.65
2023-02-12T09:14:39.367Z,9.45
2023-02-12T09:17:08.365Z,30.98
2023-02-12T09:19:37.846Z,46.20
2023-02-12T09:22:07.121Z,28.58
2023-02-12T09:24:36.334Z,21.67
2023-02-12T09:27:05.625Z,13.50
2023-02-12T09:29:34.590Z,40.05
2023-02-12T09:32:06.521Z,48.30
2023-02-12T09:34:39.093Z,6.78
2023-02-12T09:37:08.406Z,12.95
2023-02-12T09:39:37.341Z,13.18
2023-02-12T09:42:37.475Z,12.18
2023-02-12T09:45:33.955Z,19.20
2023-02-12T09:48:23.364Z,26.48
2023-02-12T09:51:04.621Z,29.52
2023-02-12T09:53:36.517Z,25.40
2023-02-12T09:56:12.955Z,52.10
2023-02-12T09:58:53.026Z,39.40
2023-02-12T10:01:23.750Z,12.82
2023-02-12T10:03:54.285Z,23.52
2023-02-12T10:06:31.775Z,26.38
2023-02-12T10:09:19.540Z,48.20
2023-02-12T10:12:18.786Z,57.13
2023-02-12T10:14:53.739Z,21.67
2023-02-12T10:17:34.964Z,30.50
2023-02-12T10:20:42.148Z,15.68
2023-02-12T10:23:29.184Z,28.40
2023-02-12T10:26:14.032Z,16.85
2023-02-12T10:28:44.423Z,21.65
2023-02-12T10:31:30.045Z,15.88
2023-02-12T10:33:59.949Z,17.50
2023-02-12T10:36:43.673Z,31.52
2023-02-12T10:39:17.059Z,22.38
2023-02-12T10:42:02.367Z,42.45
2023-02-12T10:44:32.537Z,32.50
2023-02-12T10:47:02.494Z,27.55
2023-02-12T10:49:34.038Z,45.45
2023-02-12T10:52:13.903Z,14.60
2023-02-12T10:54:46.791Z,26.85
2023-02-12T10:57:26.480Z,74.25
2023-02-12T11:00:15.354Z,27.83
2023-02-12T11:03:02.779Z,16.95
2023-02-12T11:05:34.878Z,27.00
2023-02-12T11:08:06.414Z,9.15
2023-02-12T11:10:41.334Z,18.67
2023-02-12T11:13:29.212Z,32.65
2023-02-12T11:15:58.756Z,12.35
2023-02-12T11:18:37.592Z,32.35
2023-02-12T11:21:12.845Z,20.63
2023-02-12T11:23:46.265Z,71.40
2023-02-12T11:26:21.745Z,42.42
2023-02-12T11:29:18.316Z,20.48
2023-02-12T11:32:03.728Z,25.67
2023-02-12T11:34:33.124Z,35.70
2023-02-12T11:37:03.340Z,14.25
2023-02-12T11:39:40.001Z,21.85
2023-02-12T11:42:24.333Z,17.30
2023-02-12T11:44:58.729Z,28.90
2023-02-12T11:47:31.567Z,17.23
2023-02-12T11:50:27.526Z,19.50
2023-02-12T11:53:07.821Z,18.27
2023-02-12T11:55:41.080Z,21.55
2023-02-12T11:58:18.891Z,24.40
2023-02-12T12:00:55.345Z,25.60
2023-02-12T12:03:27.428Z,22.48
2023-02-12T12:06:04.284Z,34.83
2023-02-12T12:08:49.738Z,27.33
2023-02-12T12:11:26.272Z,24.65
2023-02-12T12:14:05.915Z,16.40
2023-02-12T12:17:15.215Z,28.33
2023-02-12T12:19:59.529Z,35.50
2023-02-12T12:22:48.217Z,39.60
2023-02-12T12:25:36.344Z,55.50
2023-02-12T12:28:32.292Z,27.15
2023-02-12T12:31:07.491Z,30.13
2023-02-12T12:33:59.940Z,24.23
2023-02-12T12:36:59.134Z,18.15
2023-02-12T12:39:34.342Z,31.25
2023-02-12T12:42:27.918Z,50.33
2023-02-12T12:45:13.557Z,32.13
2023-02-12T12:48:04.331Z,91.18
2023-02-12T12:50:57.310Z,119.75
2023-02-12T12:53:53.914Z,111.13
2023-02-12T12:56:40.417Z,34.50
2023-02-12T12:59:43.871Z,41.30
2023-02-12T13:02:34.835Z,39.15
2023-02-12T13:05:22.050Z,57.22
2023-02-12T13:08:12.720Z,38.67
2023-02-12T13:10:54.853Z,39.30
2023-02-12T13:13:41.054Z,37.85
2023-02-12T13:16:16.039Z,36.28
2023-02-12T13:19:02.911Z,36.70
2023-02-12T13:22:00.737Z,45.05
2023-02-12T13:24:35.916Z,44.60
2023-02-12T13:27:22.032Z,52.45
2023-02-12T13:30:00.242Z,30.13
2023-02-12T13:32:44.131Z,52.38
2023-02-12T13:35:30.830Z,83.90
2023-02-12T13:38:01.821Z,45.63
2023-02-12T13:40:32.773Z,48.40
2023-02-12T13:43:34.700Z,61.08
2023-02-12T13:46:13.450Z,49.08
2023-02-12T13:49:16.624Z,54.95
2023-02-12T13:51:55.149Z,71.53
2023-02-12T13:55:21.203Z,113.50
2023-02-12T13:58:35.917Z,64.10
2023-02-12T14:01:34.740Z,86.15
2023-02-12T14:04:21.144Z,72.60
2023-02-12T14:07:13.874Z,75.72
2023-02-12T14:09:52.179Z,93.90
2023-02-12T14:12:27.505Z,81.10
2023-02-12T14:15:06.944Z,67.35
2023-02-12T14:17:36.372Z,65.72
2023-02-12T14:20:12.716Z,86.93
2023-02-12T14:22:45.001Z,326.90
2023-02-12T14:25:26.088Z,114.05
2023-02-12T14:28:07.450Z,81.90
2023-02-12T14:30:40.221Z,114.38
2023-02-12T14:33:09.490Z,91.82
2023-02-12T14:35:45.975Z,82.82
2023-02-12T14:38:21.425Z,99.50
2023-02-12T14:40:52.262Z,64.90
2023-02-12T14:43:33.561Z,61.38
2023-02-12T14:46:24.877Z,65.57
2023-02-12T14:49:06.892Z,66.57
2023-02-12T14:51:52.734Z,98.03
2023-02-12T14:54:51.275Z,107.40
2023-02-12T14:57:35.025Z,106.55
2023-02-12T15:00:19.614Z,96.07
2023-02-12T15:02:52.283Z,125.88
2023-02-12T15:05:45.125Z,96.30
2023-02-12T15:08:21.877Z,115.95
2023-02-12T15:10:56.712Z,64.38
2023-02-12T15:13:49.306Z,61.35
2023-02-12T15:16:27.175Z,72.20
2023-02-12T15:19:15.799Z,55.88
2023-02-12T15:21:47.040Z,51.63
2023-02-12T15:24:24.704Z,54.17
2023-02-12T15:27:03.035Z,88.88
2023-02-12T15:29:42.549Z,53.42
2023-02-12T15:32:20.747Z,75.97
2023-02-12T15:34:51.686Z,71.72
2023-02-12T15:37:28.483Z,78.93
2023-02-12T15:40:01.677Z,68.18
2023-02-12T15:42:35.276Z,66.45
2023-02-12T15:45:16.382Z,65.05
2023-02-12T15:47:47.631Z,45.75
2023-02-12T15:50:19.187Z,52.05
2023-02-12T15:52:51.197Z,46.50
2023-02-12T15:55:23.831Z,54.22
2023-02-12T15:57:56.039Z,66.10
2023-02-12T16:00:42.387Z,121.72
2023-02-12T16:03:32.312Z,58.75
2023-02-12T16:06:15.015Z,48.28
2023-02-12T16:11:21.668Z,64.47
2023-02-12T16:13:58.255Z,81.05
2023-02-12T16:16:55.812Z,85.13
2023-02-12T16:19:38.056Z,50.03
2023-02-12T16:22:09.778Z,70.30
2023-02-12T16:24:48.571Z,148.57
2023-02-12T16:27:22.395Z,86.55
2023-02-12T16:29:59.405Z,100.10
2023-02-12T16:32:35.117Z,114.57
2023-02-12T16:35:13.307Z,116.32
2023-02-12T16:37:53.237Z,117.85
2023-02-12T16:40:27.276Z,111.10
2023-02-12T16:42:56.405Z,148.40
2023-02-12T16:45:35.663Z,177.98
2023-02-12T16:48:13.774Z,236.73
2023-02-12T16:50:56.283Z,215.40
2023-02-12T16:53:32.855Z,224.52
2023-02-12T16:56:04.021Z,234.20
2023-02-12T16:58:33.874Z,215.07
2023-02-12T17:01:05.967Z,139.05
2023-02-12T17:03:37.223Z,135.00
2023-02-12T17:06:06.800Z,128.00
2023-02-12T17:08:36.048Z,231.93
2023-02-12T17:11:05.806Z,153.63
2023-02-12T17:13:34.818Z,170.85
2023-02-12T17:16:04.716Z,151.23
2023-02-12T17:18:34.142Z,118.85
2023-02-12T17:21:28.056Z,154.45
2023-02-12T17:23:57.795Z,137.70
2023-02-12T17:26:26.913Z,144.75
2023-02-12T17:28:56.206Z,165.43
2023-02-12T17:31:25.840Z,150.43
2023-02-12T17:33:55.000Z,163.13
2023-02-12T17:36:25.530Z,102.63
2023-02-12T17:38:54.900Z,60.22
2023-02-12T17:41:25.484Z,51.03
2023-02-12T17:43:54.688Z,43.70
2023-02-12T17:46:26.985Z,58.65
2023-02-12T17:51:26.034Z,35.92
2023-02-12T17:53:55.212Z,31.35
2023-02-12T17:56:26.683Z,36.78
2023-02-12T17:58:55.648Z,23.65
2023-02-12T18:01:25.837Z,32.65
2023-02-12T18:03:56.616Z,47.53
2023-02-12T18:06:28.930Z,63.90
2023-02-12T18:09:00.371Z,113.35
2023-02-12T18:11:30.737Z,150.98
2023-02-12T18:14:01.394Z,159.82
2023-02-12T18:16:32.609Z,159.82
2023-02-12T18:19:05.484Z,149.95
2023-02-12T18:21:35.968Z,150.18
2023-02-12T18:24:05.751Z,118.60
2023-02-12T18:26:34.895Z,152.93
2023-02-12T18:29:04.300Z,149.55
2023-02-12T18:31:34.114Z,169.07
2023-02-12T18:34:05.082Z,147.63
2023-02-12T18:36:34.892Z,142.30
2023-02-12T18:39:04.061Z,151.13
2023-02-12T18:41:36.768Z,178.18
2023-02-12T18:44:06.634Z,157.80
2023-02-12T18:46:35.527Z,160.95
2023-02-12T18:49:06.692Z,112.38
2023-02-12T18:51:39.337Z,144.75
2023-02-12T18:56:44.623Z,171.73
2023-02-12T19:01:45.339Z,64.85
2023-02-12T19:04:17.062Z,62.83
2023-02-12T19:06:49.792Z,69.47
2023-02-12T19:11:53.033Z,63.97
2023-02-12T19:14:24.631Z,63.60
2023-02-12T19:16:54.275Z,86.90
2023-02-12T19:19:23.867Z,61.85
2023-02-12T19:21:53.347Z,57.05
2023-02-12T19:24:22.978Z,62.58
2023-02-12T19:26:54.374Z,68.28
2023-02-12T19:29:23.755Z,63.42
2023-02-12T19:31:52.879Z,67.85
2023-02-12T19:34:24.164Z,82.85
2023-02-12T19:36:53.540Z,54.20
2023-02-12T19:39:25.746Z,54.92
2023-02-12T19:41:57.055Z,64.68
2023-02-12T19:44:27.335Z,59.53
2023-02-12T19:46:57.893Z,58.67
2023-02-12T19:49:29.770Z,67.38
2023-02-12T19:51:59.183Z,69.97
2023-02-12T19:54:28.681Z,72.80
2023-02-12T19:56:58.505Z,68.07
2023-02-12T19:59:28.107Z,75.55
2023-02-12T20:01:57.507Z,69.40
2023-02-12T20:04:27.089Z,62.80
2023-02-12T20:06:56.806Z,60.75
2023-02-12T20:09:26.369Z,46.35
2023-02-12T20:11:56.265Z,47.65
2023-02-12T20:14:25.385Z,55.22
2023-02-12T20:16:57.132Z,61.60
2023-02-12T20:19:32.276Z,61.83
2023-02-12T20:22:02.584Z,50.22
2023-02-12T20:24:34.496Z,46.03
2023-02-12T20:27:04.508Z,40.00
2023-02-12T20:29:33.937Z,50.17
2023-02-12T20:32:03.548Z,50.03
2023-02-12T20:34:42.496Z,43.35
2023-02-12T20:37:19.273Z,52.42
2023-02-12T20:39:49.190Z,50.20
2023-02-12T20:42:17.992Z,50.92
2023-02-12T20:44:47.371Z,64.22
2023-02-12T20:47:16.849Z,65.90
2023-02-12T20:49:47.028Z,77.05
2023-02-12T20:52:16.106Z,69.07
2023-02-12T20:54:47.745Z,55.70
2023-02-12T20:57:18.143Z,46.50
2023-02-12T20:59:47.277Z,56.33
2023-02-12T21:02:17.670Z,62.08
2023-02-12T21:04:46.874Z,55.92
2023-02-12T21:07:16.370Z,56.78
2023-02-12T21:09:46.009Z,44.53
2023-02-12T21:12:15.047Z,57.70
2023-02-12T21:14:44.457Z,62.70
2023-02-12T21:17:13.422Z,50.55
2023-02-12T21:19:42.793Z,57.95
2023-02-12T21:22:11.735Z,53.75
2023-02-12T21:24:41.040Z,65.65
2023-02-12T21:27:10.307Z,47.60
2023-02-12T21:29:39.923Z,48.42
2023-02-12T21:32:09.142Z,44.38
2023-02-12T21:34:38.966Z,37.75
2023-02-12T21:37:08.383Z,49.28
2023-02-12T21:39:38.029Z,49.25
2023-02-12T21:42:06.834Z,50.53
2023-02-12T21:44:36.513Z,41.97
2023-02-12T21:47:06.656Z,44.78
2023-02-12T21:49:36.134Z,46.63
2023-02-12T21:52:07.651Z,56.30
2023-02-12T21:54:36.793Z,56.78
2023-02-12T21:57:05.905Z,50.20
2023-02-12T21:59:35.046Z,46.00
2023-02-12T22:02:04.044Z,45.10
2023-02-12T22:04:33.287Z,45.80
2023-02-12T22:07:04.306Z,54.92
2023-02-12T22:09:34.589Z,34.83
2023-02-12T22:12:03.610Z,43.22
2023-02-12T22:14:33.295Z,50.50
2023-02-12T22:17:02.389Z,68.50
2023-02-12T22:19:32.094Z,72.50
2023-02-12T22:22:01.291Z,61.47
2023-02-12T22:24:30.702Z,68.25
2023-02-12T22:26:59.701Z,58.67
2023-02-12T22:29:29.137Z,53.95
2023-02-12T22:31:58.008Z,52.80
2023-02-12T22:34:27.131Z,51.72
2023-02-12T22:36:56.416Z,53.15
2023-02-12T22:39:25.647Z,63.22
2023-02-12T22:41:54.817Z,74.15
2023-02-12T22:44:24.320Z,82.57
2023-02-12T22:46:53.523Z,92.72
2023-02-12T22:49:23.080Z,109.22
2023-02-12T22:51:52.208Z,105.82
2023-02-12T22:54:21.837Z,101.85
2023-02-12T22:56:54.364Z,118.93
2023-02-12T22:59:24.030Z,120.55
2023-02-12T23:01:53.171Z,107.40
2023-02-12T23:04:22.712Z,94.15
2023-02-12T23:06:51.797Z,179.80
2023-02-12T23:09:21.140Z,66.22
2023-02-12T23:11:50.576Z,52.33
2023-02-12T23:14:20.257Z,55.03
2023-02-12T23:16:50.047Z,58.90
2023-02-12T23:19:19.779Z,60.33
2023-02-12T23:21:48.884Z,64.47
2023-02-12T23:24:18.417Z,64.88
2023-02-12T23:26:47.573Z,66.82
2023-02-12T23:29:16.886Z,54.50
2023-02-12T23:31:46.122Z,53.95
2023-02-12T23:34:15.885Z,47.15
2023-02-12T23:36:44.713Z,58.13
2023-02-12T23:39:14.449Z,51.53
2023-02-12T23:41:43.528Z,50.97
2023-02-12T23:44:13.053Z,56.47
2023-02-12T23:46:42.321Z,45.33
2023-02-12T23:49:11.855Z,40.58
2023-02-12T23:51:40.813Z,39.10
2023-02-12T23:54:10.400Z,40.35
2023-02-12T23:56:39.437Z,47.20
2023-02-12T23:59:09.263Z,36.28
